Time;durP1;ratioP1;P1;durP2;ratioP2;P2;SDS_P1;SDS_P2;PMS_P1;PMS_P2;Temp;Humidity;BMP_temperature;BMP_pressure;BME280_temperature;BME280_humidity;BME280_pressure;Samples;Min_cycle;Max_cycle;Signal;HPM_P1;HPM_P2
2024/01/16 00:01:58;;;;;;;5.70;1.40;;;;;;;-5.36;90.44;97726.71;109713;1251;72696;-64
2024/01/16 00:04:46;;;;;;;6.10;1.50;;;;;;;-5.38;89.34;97729.95;109794;1251;57876;-64
2024/01/16 00:07:35;;;;;;;3.60;0.90;;;;;;;-5.42;88.28;97733.42;109699;1251;58712;-64
2024/01/16 00:10:23;;;;;;;3.90;0.90;;;;;;;-5.42;88.59;97738.61;109018;1251;1002357;-64
2024/01/16 00:13:11;;;;;;;4.40;1.10;;;;;;;-5.43;89.58;97747.48;108923;1251;1002772;-64
2024/01/16 00:16:02;;;;;;;4.30;0.90;;;;;;;-5.49;88.97;97741.38;109637;1251;71085;-64
2024/01/16 00:18:50;;;;;;;4.90;1.10;;;;;;;-5.46;88.94;97766.45;109520;1251;58568;-63
2024/01/16 00:21:40;;;;;;;4.00;1.10;;;;;;;-5.47;89.46;97768.55;108921;1251;1002241;-66
2024/01/16 00:24:28;;;;;;;5.20;1.20;;;;;;;-5.48;89.96;97778.29;109583;1250;71674;-66
2024/01/16 00:27:15;;;;;;;3.90;0.90;;;;;;;-5.47;90.13;97781.90;109040;1251;1002743;-63
2024/01/16 00:30:05;;;;;;;5.10;1.10;;;;;;;-5.47;90.56;97786.38;108864;1251;1002354;-63
2024/01/16 00:32:53;;;;;;;6.00;1.00;;;;;;;-5.47;91.38;97794.66;109719;1255;57991;-63
2024/01/16 00:35:41;;;;;;;4.60;1.00;;;;;;;-5.47;91.65;97799.69;109428;1251;59025;-64
2024/01/16 00:38:33;;;;;;;4.90;1.10;;;;;;;-5.48;91.62;97800.92;109760;1251;72898;-63
2024/01/16 00:41:21;;;;;;;4.40;1.00;;;;;;;-5.49;91.79;97806.16;109605;1251;67580;-63
2024/01/16 00:44:10;;;;;;;3.80;0.90;;;;;;;-5.51;91.29;97813.04;109739;1251;72604;-63
2024/01/16 00:47:01;;;;;;;3.50;0.90;;;;;;;-5.53;91.41;97818.97;109616;1251;57541;-63
2024/01/16 00:49:50;;;;;;;5.90;1.20;;;;;;;-5.56;91.75;97821.34;109676;1251;59110;-66
2024/01/16 00:52:37;;;;;;;4.30;0.90;;;;;;;-5.59;91.28;97823.23;108892;1251;1003075;-63
2024/01/16 00:55:25;;;;;;;6.50;0.90;;;;;;;-5.60;91.19;97821.89;109748;1251;67598;-64
2024/01/16 00:58:13;;;;;;;4.50;1.00;;;;;;;-5.58;91.92;97836.17;109749;1251;71541;-65
2024/01/16 01:01:01;;;;;;;3.30;0.90;;;;;;;-5.57;91.88;97843.05;108980;1254;1002447;-64
2024/01/16 01:03:48;;;;;;;4.60;1.20;;;;;;;-5.60;90.83;97845.92;109788;1251;60385;-63
2024/01/16 01:06:37;;;;;;;5.50;1.20;;;;;;;-5.64;90.93;97843.02;109726;1251;71448;-64
2024/01/16 01:09:25;;;;;;;7.50;0.90;;;;;;;-5.67;90.95;97845.74;109640;1251;67601;-64
2024/01/16 01:12:12;;;;;;;4.80;1.10;;;;;;;-5.68;91.03;97840.42;109661;1252;73869;-64
2024/01/16 01:15:01;;;;;;;4.70;1.00;;;;;;;-5.67;91.22;97849.73;109666;1251;59298;-64
2024/01/16 01:17:50;;;;;;;3.70;1.00;;;;;;;-5.68;90.67;97853.57;109682;1251;61048;-65
2024/01/16 01:20:38;;;;;;;4.90;1.10;;;;;;;-5.70;90.80;97855.57;109781;1251;72025;-64
2024/01/16 01:23:26;;;;;;;5.60;1.30;;;;;;;-5.72;91.22;97862.05;109729;1251;67612;-66
2024/01/16 01:26:14;;;;;;;4.70;1.20;;;;;;;-5.74;91.71;97867.68;109761;1250;72928;-63
2024/01/16 01:29:02;;;;;;;4.60;1.30;;;;;;;-5.76;91.40;97868.65;109706;1251;59635;-63
2024/01/16 01:31:50;;;;;;;4.10;1.20;;;;;;;-5.79;92.07;97867.55;109738;1251;60278;-63
2024/01/16 01:34:41;;;;;;;4.70;1.10;;;;;;;-5.83;91.51;97874.80;109699;1251;71784;-63
2024/01/16 01:37:29;;;;;;;5.00;1.00;;;;;;;-5.88;91.39;97880.20;109667;1251;67797;-63
2024/01/16 01:40:19;;;;;;;6.00;0.80;;;;;;;-5.93;91.13;97880.27;109714;1251;71256;-63
2024/01/16 01:43:20;;;;;;;4.90;1.10;;;;;;;-5.99;91.28;97884.36;109768;1250;58698;-65
2024/01/16 01:46:19;;;;;;;2.70;0.80;;;;;;;-6.07;91.97;97891.66;109655;1250;61080;-65
2024/01/16 01:49:06;;;;;;;5.70;1.10;;;;;;;-6.10;92.26;97902.65;109448;1251;72806;-64
2024/01/16 01:51:55;;;;;;;5.00;1.20;;;;;;;-6.10;92.38;97906.48;109784;1251;67787;-64
2024/01/16 01:54:44;;;;;;;6.80;1.20;;;;;;;-6.13;92.15;97911.43;109630;1251;73484;-65
2024/01/16 01:57:34;;;;;;;3.80;0.90;;;;;;;-6.18;91.63;97915.23;108855;1251;1002107;-64
2024/01/16 02:00:22;;;;;;;4.40;0.80;;;;;;;-6.21;91.17;97914.33;109560;1251;59918;-65
2024/01/16 02:03:10;;;;;;;4.60;1.10;;;;;;;-6.25;90.68;97916.95;109758;1251;73125;-64
2024/01/16 02:05:59;;;;;;;2.50;0.70;;;;;;;-6.29;90.82;97917.45;109760;1251;68248;-64
2024/01/16 02:08:47;;;;;;;4.70;1.10;;;;;;;-6.32;90.67;97925.70;109550;1251;72270;-64
2024/01/16 02:11:35;;;;;;;4.30;1.10;;;;;;;-6.36;90.52;97932.77;108964;1251;1002398;-65
2024/01/16 02:14:23;;;;;;;4.00;1.00;;;;;;;-6.38;90.52;97942.00;108937;1251;1015436;-65
2024/01/16 02:17:11;;;;;;;3.50;0.90;;;;;;;-6.40;90.45;97942.24;108991;1251;1002133;-64
2024/01/16 02:19:59;;;;;;;4.10;0.90;;;;;;;-6.43;90.39;97947.75;108999;1251;1002065;-64
2024/01/16 02:22:50;;;;;;;8.30;2.30;;;;;;;-6.44;91.01;97952.09;109646;1254;72830;-63
2024/01/16 02:25:43;;;;;;;10.20;3.10;;;;;;;-6.44;91.04;97951.93;109705;1251;59536;-65
2024/01/16 02:28:31;;;;;;;23.80;5.20;;;;;;;-6.43;90.51;97952.23;109624;1251;61292;-64
2024/01/16 02:31:18;;;;;;;17.70;5.10;;;;;;;-6.43;90.78;97957.05;109764;1251;73008;-64
2024/01/16 02:34:07;;;;;;;12.30;3.90;;;;;;;-6.44;90.66;97962.27;109775;1250;68378;-64
2024/01/16 02:36:55;;;;;;;10.30;2.70;;;;;;;-6.47;90.55;97965.02;109751;1251;72663;-63
2024/01/16 02:39:43;;;;;;;9.30;3.20;;;;;;;-6.52;90.19;97959.87;109754;1251;59582;-64
2024/01/16 02:42:31;;;;;;;12.70;4.10;;;;;;;-6.62;89.84;97957.16;109257;1256;59162;-62
2024/01/16 02:45:20;;;;;;;14.90;4.70;;;;;;;-6.62;89.86;97973.23;109195;1257;73093;-63
2024/01/16 02:48:08;;;;;;;18.80;5.10;;;;;;;-6.70;90.03;97979.21;109306;1256;65891;-63
2024/01/16 02:50:56;;;;;;;9.20;2.80;;;;;;;-6.76;89.49;97983.98;108308;1257;1002713;-64
2024/01/16 02:53:43;;;;;;;7.20;1.90;;;;;;;-6.83;90.10;97987.55;109288;1257;58333;-63
2024/01/16 02:56:31;;;;;;;5.50;1.60;;;;;;;-6.88;90.29;97991.18;108497;1257;1002508;-63
2024/01/16 02:59:19;;;;;;;3.40;0.90;;;;;;;-6.93;90.13;97998.25;108519;1256;1002508;-64
2024/01/16 03:02:08;;;;;;;6.00;1.00;;;;;;;-6.96;90.55;98010.30;108473;1257;1002756;-63
2024/01/16 03:04:57;;;;;;;4.20;1.20;;;;;;;-7.01;91.05;98010.62;108405;1260;1002483;-64
2024/01/16 03:07:45;;;;;;;5.20;1.20;;;;;;;-7.05;90.78;98014.95;108314;1257;1002100;-63
2024/01/16 03:10:33;;;;;;;4.40;1.10;;;;;;;-7.09;90.40;98015.64;109283;1258;58703;-64
2024/01/16 03:13:20;;;;;;;3.90;1.00;;;;;;;-7.13;90.53;98022.83;109209;1256;72797;-64
2024/01/16 03:16:11;;;;;;;3.40;0.90;;;;;;;-7.20;90.74;98015.70;108533;1257;1002405;-63
2024/01/16 03:18:59;;;;;;;4.20;1.10;;;;;;;-7.26;90.35;98015.73;109246;1257;73402;-64
2024/01/16 03:21:47;;;;;;;4.40;1.10;;;;;;;-7.25;90.38;98029.48;109766;1251;57717;-63
2024/01/16 03:24:34;;;;;;;5.60;1.20;;;;;;;-7.29;90.74;98034.98;109765;1251;61318;-62
2024/01/16 03:27:22;;;;;;;4.20;1.10;;;;;;;-7.33;90.50;98046.85;109779;1251;73016;-63
2024/01/16 03:30:10;;;;;;;3.80;1.00;;;;;;;-7.35;90.78;98044.17;109654;1251;67877;-63
2024/01/16 03:32:58;;;;;;;6.50;1.10;;;;;;;-7.37;90.82;98048.56;109736;1251;72585;-65
2024/01/16 03:35:47;;;;;;;8.60;1.50;;;;;;;-7.39;91.04;98057.41;109740;1251;58838;-64
2024/01/16 03:38:39;;;;;;;4.10;1.00;;;;;;;-7.41;90.98;98055.77;109655;1251;61383;-62
2024/01/16 03:41:27;;;;;;;5.00;1.20;;;;;;;-7.42;90.82;98057.36;109554;1250;73084;-64
2024/01/16 03:44:15;;;;;;;4.80;1.00;;;;;;;-7.42;91.50;98057.86;109707;1251;67621;-64
2024/01/16 03:47:03;;;;;;;3.90;0.80;;;;;;;-7.42;91.44;98060.80;108987;1251;1002651;-63
2024/01/16 03:49:51;;;;;;;3.20;0.80;;;;;;;-7.39;91.85;98061.73;109748;1250;59474;-64
2024/01/16 03:52:38;;;;;;;4.80;1.00;;;;;;;-7.35;91.92;98065.71;109554;1250;59995;-64
2024/01/16 03:55:26;;;;;;;4.60;1.10;;;;;;;-7.30;92.21;98069.13;109647;1251;71861;-64
2024/01/16 03:58:14;;;;;;;5.00;1.10;;;;;;;-7.22;92.40;98077.11;108924;1251;1002461;-64
2024/01/16 04:01:01;;;;;;;4.30;1.20;;;;;;;-7.13;92.82;98082.46;109655;1251;72675;-63
2024/01/16 04:03:50;;;;;;;5.50;1.30;;;;;;;-7.05;92.30;98091.98;109632;1250;57764;-65
2024/01/16 04:06:38;;;;;;;3.80;0.90;;;;;;;-6.99;91.66;98097.48;109839;1251;61076;-64
2024/01/16 04:09:26;;;;;;;4.50;1.10;;;;;;;-6.96;91.00;98103.05;108912;1251;1002038;-64
2024/01/16 04:12:13;;;;;;;4.00;1.00;;;;;;;-6.93;90.59;98098.60;109812;1251;66639;-64
2024/01/16 04:15:01;;;;;;;3.40;0.80;;;;;;;-6.97;90.02;98092.05;109862;1251;72300;-67
2024/01/16 04:17:49;;;;;;;4.20;1.00;;;;;;;-6.91;89.52;98107.17;109426;1251;57344;-66
2024/01/16 04:20:37;;;;;;;3.70;1.00;;;;;;;-6.92;89.32;98107.73;109574;1251;61059;-66
2024/01/16 04:23:25;;;;;;;4.00;1.00;;;;;;;-6.95;88.67;98104.58;109690;1251;71498;-62
2024/01/16 04:26:13;;;;;;;4.30;0.90;;;;;;;-6.97;88.41;98107.58;108891;1251;1002203;-63
2024/01/16 04:29:01;;;;;;;3.20;0.80;;;;;;;-7.01;88.07;98111.15;108881;1250;1002655;-66
2024/01/16 04:31:49;;;;;;;3.50;0.90;;;;;;;-7.02;87.84;98115.70;109479;1251;58544;-63
2024/01/16 04:34:37;;;;;;;6.20;1.40;;;;;;;-7.04;88.35;98117.31;109573;1251;58965;-63
2024/01/16 04:37:25;;;;;;;4.20;1.10;;;;;;;-7.04;88.32;98126.46;109630;1251;71905;-64
2024/01/16 04:40:12;;;;;;;4.70;1.10;;;;;;;-7.03;88.14;98128.98;109689;1251;66406;-63
2024/01/16 04:43:01;;;;;;;5.20;1.20;;;;;;;-7.00;88.92;98131.30;109705;1251;73630;-64
2024/01/16 04:45:49;;;;;;;4.60;1.00;;;;;;;-6.98;88.86;98131.76;109661;1251;57628;-64
2024/01/16 04:48:36;;;;;;;3.70;0.90;;;;;;;-7.00;87.87;98138.55;108804;1251;1002655;-66
2024/01/16 04:51:25;;;;;;;4.00;1.20;;;;;;;-7.03;86.97;98140.02;109721;1251;73153;-64
2024/01/16 04:54:13;;;;;;;4.80;1.30;;;;;;;-7.05;87.06;98141.13;109631;1251;69006;-65
2024/01/16 04:57:00;;;;;;;6.00;1.40;;;;;;;-7.07;86.84;98148.46;109722;1250;73996;-64
2024/01/16 04:59:48;;;;;;;5.30;1.00;;;;;;;-7.09;86.76;98158.19;109687;1250;57963;-66
2024/01/16 05:02:36;;;;;;;4.60;1.20;;;;;;;-7.12;86.52;98164.34;109630;1251;59028;-63
2024/01/16 05:05:24;;;;;;;4.90;1.10;;;;;;;-7.16;86.21;98167.92;109723;1251;74230;-64
2024/01/16 05:08:17;;;;;;;5.20;1.10;;;;;;;-7.16;86.67;98171.90;109749;1251;67663;-65
2024/01/16 05:11:05;;;;;;;4.40;1.00;;;;;;;-7.14;87.04;98169.55;109720;1250;71425;-65
2024/01/16 05:13:57;;;;;;;5.40;1.00;;;;;;;-7.11;86.61;98172.23;109606;1250;58985;-64
2024/01/16 05:16:45;;;;;;;4.10;1.00;;;;;;;-7.08;86.56;98177.83;109722;1251;60226;-65
2024/01/16 05:19:33;;;;;;;6.60;1.10;;;;;;;-7.06;86.50;98182.02;108933;1251;1002456;-66
2024/01/16 05:22:21;;;;;;;3.90;1.00;;;;;;;-7.04;86.13;98185.77;108720;1251;1002984;-64
2024/01/16 05:25:09;;;;;;;3.80;0.90;;;;;;;-7.01;86.43;98190.14;109575;1251;72474;-63
2024/01/16 05:27:57;;;;;;;4.70;1.10;;;;;;;-6.98;86.35;98195.73;108803;1250;1002301;-67
2024/01/16 05:30:45;;;;;;;6.10;1.20;;;;;;;-6.95;85.83;98197.15;108762;1254;1002452;-64
2024/01/16 05:33:35;;;;;;;4.70;1.30;;;;;;;-6.90;86.75;98201.81;109464;1251;71785;-64
2024/01/16 05:36:28;;;;;;;5.80;1.50;;;;;;;-6.84;86.53;98200.73;109493;1251;66391;-65
2024/01/16 05:39:17;;;;;;;5.00;1.20;;;;;;;-6.78;85.98;98202.25;108595;1251;1002922;-64
2024/01/16 05:42:06;;;;;;;5.70;1.50;;;;;;;-6.75;85.35;98199.37;109461;1251;57674;-64
2024/01/16 05:44:54;;;;;;;6.10;1.20;;;;;;;-6.75;85.25;98200.20;109516;1251;61311;-65
2024/01/16 05:47:42;;;;;;;6.10;1.40;;;;;;;-6.76;85.41;98201.48;109596;1251;72325;-65
2024/01/16 05:50:30;;;;;;;5.20;1.00;;;;;;;-6.81;85.40;98210.44;108510;1251;1002457;-63
2024/01/16 05:53:19;;;;;;;4.50;1.10;;;;;;;-6.86;86.04;98217.33;109525;1251;71591;-63
2024/01/16 05:56:07;;;;;;;4.20;1.00;;;;;;;-6.88;86.03;98217.44;109439;1251;57922;-63
2024/01/16 05:58:55;;;;;;;6.60;1.30;;;;;;;-6.88;85.99;98222.76;108745;1251;1015111;-63
2024/01/16 06:01:43;;;;;;;5.00;1.10;;;;;;;-6.85;86.09;98231.27;109484;1251;71776;-66
2024/01/16 06:04:31;;;;;;;6.60;1.30;;;;;;;-6.82;86.00;98230.14;109476;1251;67687;-65
2024/01/16 06:07:19;;;;;;;4.10;1.10;;;;;;;-6.79;86.71;98232.13;109437;1251;72849;-64
2024/01/16 06:10:07;;;;;;;5.30;1.20;;;;;;;-6.80;87.71;98234.04;109550;1251;57877;-64
2024/01/16 06:12:55;;;;;;;3.50;0.90;;;;;;;-6.85;88.24;98237.16;109110;1251;59920;-65
2024/01/16 06:15:43;;;;;;;4.30;1.00;;;;;;;-6.89;88.48;98241.23;109496;1251;73887;-62
2024/01/16 06:18:31;;;;;;;5.10;1.30;;;;;;;-6.90;88.31;98240.95;109584;1251;66414;-67
2024/01/16 06:21:19;;;;;;;4.60;1.10;;;;;;;-6.91;88.09;98245.63;108714;1254;1002798;-64
2024/01/16 06:24:13;;;;;;;6.60;1.40;;;;;;;-6.93;88.15;98255.34;109479;1253;58106;-64
2024/01/16 06:27:06;;;;;;;7.50;1.30;;;;;;;-6.92;87.90;98257.05;109506;1252;60399;-63
2024/01/16 06:29:54;;;;;;;7.90;1.20;;;;;;;-6.91;87.29;98259.45;109432;1253;74010;-63
2024/01/16 06:32:42;;;;;;;5.70;1.40;;;;;;;-6.88;87.13;98260.19;109435;1252;67617;-64
2024/01/16 06:35:30;;;;;;;5.50;1.20;;;;;;;-6.83;87.14;98267.61;109522;1252;73731;-64
2024/01/16 06:38:18;;;;;;;5.10;1.40;;;;;;;-6.81;86.98;98263.91;109533;1251;58008;-64
2024/01/16 06:41:07;;;;;;;6.20;1.30;;;;;;;-6.81;86.23;98268.59;108825;1251;1002707;-65
2024/01/16 06:43:55;;;;;;;5.90;1.40;;;;;;;-6.84;85.97;98274.73;109493;1251;73298;-67
2024/01/16 06:46:42;;;;;;;4.80;1.30;;;;;;;-6.89;86.07;98277.48;109422;1252;68020;-65
2024/01/16 06:49:30;;;;;;;5.90;1.60;;;;;;;-6.93;85.83;98280.54;108731;1252;1002253;-63
2024/01/16 06:52:19;;;;;;;4.60;1.10;;;;;;;-6.95;85.14;98284.08;109466;1251;59397;-63
2024/01/16 06:55:07;;;;;;;5.40;1.50;;;;;;;-6.96;85.46;98290.84;109607;1253;58775;-64
2024/01/16 06:57:55;;;;;;;5.00;1.40;;;;;;;-6.96;85.42;98292.05;109593;1251;73117;-65
2024/01/16 07:00:43;;;;;;;6.40;1.40;;;;;;;-6.99;85.56;98296.45;109304;1253;68841;-64
2024/01/16 07:03:31;;;;;;;6.50;1.60;;;;;;;-7.01;85.81;98304.42;108623;1251;1002739;-64
2024/01/16 07:06:19;;;;;;;6.60;1.80;;;;;;;-7.01;85.89;98306.87;109542;1253;60303;-65
2024/01/16 07:09:10;;;;;;;7.40;1.50;;;;;;;-7.01;85.46;98313.41;108753;1252;1002217;-65
2024/01/16 07:11:58;;;;;;;5.00;1.40;;;;;;;-6.97;85.42;98324.48;109531;1252;72823;-64
2024/01/16 07:14:46;;;;;;;5.40;1.40;;;;;;;-6.94;84.72;98332.32;109467;1252;66752;-65
2024/01/16 07:17:33;;;;;;;4.80;1.30;;;;;;;-6.90;84.76;98332.20;109504;1252;71479;-63
2024/01/16 07:20:21;;;;;;;6.00;1.40;;;;;;;-6.89;84.77;98333.89;109404;1251;58033;-64
2024/01/16 07:23:09;;;;;;;5.30;1.20;;;;;;;-6.87;83.31;98340.69;109543;1252;59174;-63
2024/01/16 07:25:57;;;;;;;5.50;1.60;;;;;;;-6.84;84.13;98346.83;109495;1253;72802;-62
2024/01/16 07:28:47;;;;;;;6.40;1.80;;;;;;;-6.80;83.99;98356.88;109541;1252;67315;-63
2024/01/16 07:31:36;;;;;;;5.10;1.20;;;;;;;-6.75;83.71;98367.89;109511;1252;73502;-64
2024/01/16 07:34:25;;;;;;;6.00;1.30;;;;;;;-6.70;82.18;98369.62;109342;1253;58163;-66
2024/01/16 07:37:15;;;;;;;6.20;1.40;;;;;;;-6.63;82.55;98376.30;108699;1252;1002462;-63
2024/01/16 07:40:05;;;;;;;6.40;1.40;;;;;;;-6.61;82.10;98373.80;109557;1252;71865;-63
2024/01/16 07:42:53;;;;;;;6.00;1.40;;;;;;;-6.62;81.40;98377.10;109569;1252;66488;-64
2024/01/16 07:45:41;;;;;;;5.10;1.30;;;;;;;-6.62;80.82;98380.74;109561;1251;71101;-63
2024/01/16 07:48:29;;;;;;;5.60;1.40;;;;;;;-6.61;81.32;98378.46;109508;1252;57974;-65
2024/01/16 07:51:17;;;;;;;7.30;1.60;;;;;;;-6.57;80.85;98384.86;109396;1252;59199;-64
2024/01/16 07:54:08;;;;;;;7.00;1.80;;;;;;;-6.49;79.90;98384.73;109570;1252;71446;-64
2024/01/16 07:56:56;;;;;;;6.00;1.50;;;;;;;-6.41;79.73;98392.09;109417;1252;66521;-64
2024/01/16 07:59:44;;;;;;;6.90;1.60;;;;;;;-6.31;79.20;98397.93;109486;1252;72439;-63
2024/01/16 08:02:33;;;;;;;7.90;1.70;;;;;;;-6.15;79.89;98396.50;109570;1252;57260;-64
2024/01/16 08:05:25;;;;;;;8.00;2.00;;;;;;;-6.01;78.82;98403.39;109536;1251;58759;-65
2024/01/16 08:08:13;;;;;;;6.00;1.40;;;;;;;-5.93;78.05;98406.71;109521;1252;72853;-65
2024/01/16 08:11:01;;;;;;;5.20;1.50;;;;;;;-5.95;76.30;98404.73;109550;1252;67610;-63
2024/01/16 08:13:50;;;;;;;6.50;1.80;;;;;;;-6.01;76.99;98401.69;108712;1251;1014826;-64
2024/01/16 08:16:37;;;;;;;6.60;1.60;;;;;;;-5.97;76.14;98411.74;108751;1252;1003029;-63
2024/01/16 08:19:25;;;;;;;6.80;1.70;;;;;;;-5.90;76.10;98416.61;109255;1251;59101;-63
2024/01/16 08:22:13;;;;;;;6.20;1.60;;;;;;;-5.72;75.58;98424.09;108752;1251;1002558;-65
2024/01/16 08:25:01;;;;;;;7.00;1.60;;;;;;;-5.48;76.08;98425.09;109594;1251;67990;-63
2024/01/16 08:27:49;;;;;;;6.60;1.80;;;;;;;-5.34;75.49;98422.46;109639;1251;72765;-65
2024/01/16 08:30:37;;;;;;;6.70;1.80;;;;;;;-5.26;74.65;98424.91;109598;1251;57718;-65
2024/01/16 08:33:25;;;;;;;5.60;1.60;;;;;;;-4.76;73.09;98428.42;109590;1251;58569;-63
2024/01/16 08:36:23;;;;;;;7.30;2.20;;;;;;;-2.59;72.16;98427.60;109565;1251;71356;-63
2024/01/16 08:39:11;;;;;;;9.50;2.50;;;;;;;-0.32;68.46;98422.92;109562;1251;67875;-64
2024/01/16 08:42:02;;;;;;;7.20;2.20;;;;;;;1.55;61.38;98425.73;108862;1251;1003022;-66
2024/01/16 08:44:50;;;;;;;7.40;1.90;;;;;;;3.17;55.35;98427.84;109548;1251;57418;-63
2024/01/16 08:47:38;;;;;;;7.40;2.30;;;;;;;4.46;50.97;98422.32;109717;1251;59984;-64
2024/01/16 08:50:26;;;;;;;6.70;2.30;;;;;;;5.43;45.48;98425.59;109427;1251;74075;-65
2024/01/16 08:53:14;;;;;;;6.80;2.30;;;;;;;6.30;43.47;98431.02;109629;1250;67612;-64
2024/01/16 08:56:02;;;;;;;6.70;2.10;;;;;;;7.11;40.66;98428.10;109531;1251;73707;-64
2024/01/16 08:58:50;;;;;;;6.60;2.20;;;;;;;7.77;39.31;98426.86;109353;1251;57303;-63
2024/01/16 09:01:39;;;;;;;6.30;1.80;;;;;;;8.34;36.82;98427.60;109575;1250;59967;-64
2024/01/16 09:04:28;;;;;;;8.90;2.00;;;;;;;7.94;36.26;98429.67;109641;1251;71909;-64
2024/01/16 09:07:16;;;;;;;7.90;2.60;;;;;;;6.73;37.60;98439.64;109485;1251;67633;-66
2024/01/16 09:10:05;;;;;;;7.50;2.40;;;;;;;7.74;37.54;98437.38;109338;1251;72716;-64
2024/01/16 09:12:53;;;;;;;7.10;2.40;;;;;;;8.47;36.15;98441.61;109606;1251;57613;-63
2024/01/16 09:15:41;;;;;;;8.00;2.70;;;;;;;9.05;34.47;98440.17;109627;1251;60552;-64
2024/01/16 09:18:29;;;;;;;8.00;2.50;;;;;;;9.50;32.92;98444.58;109589;1251;73030;-64
2024/01/16 09:21:17;;;;;;;7.70;2.50;;;;;;;10.04;32.33;98446.00;109635;1251;68034;-67
2024/01/16 09:24:05;;;;;;;7.50;2.20;;;;;;;10.20;31.68;98452.15;109508;1251;70587;-65
2024/01/16 09:26:53;;;;;;;6.50;2.20;;;;;;;9.33;30.02;98453.64;108991;1250;1002465;-67
2024/01/16 09:29:42;;;;;;;6.90;2.10;;;;;;;7.33;32.58;98467.13;109625;1251;58663;-67
2024/01/16 09:32:29;;;;;;;7.10;1.90;;;;;;;5.46;34.21;98471.28;109476;1251;218281;-68
2024/01/16 09:35:17;;;;;;;7.20;2.20;;;;;;;4.31;37.74;98473.89;109563;1251;67901;-66
2024/01/16 09:38:05;;;;;;;7.60;2.30;;;;;;;3.40;38.87;98478.22;109432;1251;72593;-67
2024/01/16 09:40:58;;;;;;;7.00;2.00;;;;;;;2.63;40.11;98483.33;109683;1251;57305;-68
2024/01/16 09:43:48;;;;;;;6.40;2.20;;;;;;;2.17;40.76;98485.80;109609;1251;58837;-66
2024/01/16 09:46:39;;;;;;;7.20;2.30;;;;;;;2.22;41.55;98492.50;109571;1251;72766;-65
2024/01/16 09:49:29;;;;;;;8.20;2.20;;;;;;;2.24;41.46;98494.30;108790;1251;1002598;-65
2024/01/16 09:52:17;;;;;;;7.50;2.10;;;;;;;1.82;41.88;98485.72;109523;1251;73725;-68
2024/01/16 09:55:06;;;;;;;7.30;2.10;;;;;;;1.23;43.21;98495.13;109683;1251;57306;-67
2024/01/16 09:57:54;;;;;;;7.30;1.90;;;;;;;0.62;43.65;98507.02;109529;1251;59110;-66
2024/01/16 10:00:44;;;;;;;6.10;1.90;;;;;;;-0.00;45.53;98511.25;108750;1251;1002779;-67
2024/01/16 10:03:34;;;;;;;6.50;2.40;;;;;;;-0.62;46.84;98518.28;109598;1252;68605;-68
2024/01/16 10:06:23;;;;;;;7.40;1.90;;;;;;;-1.04;48.29;98530.70;109559;1251;72674;-66
2024/01/16 10:09:12;;;;;;;7.00;1.90;;;;;;;-1.48;49.54;98537.04;108744;1252;1002485;-66
2024/01/16 10:12:00;;;;;;;9.10;2.30;;;;;;;-1.85;50.98;98535.98;109500;1251;60326;-65
2024/01/16 10:14:50;;;;;;;6.30;1.80;;;;;;;-2.11;51.65;98537.99;109490;1252;73586;-67
2024/01/16 10:17:42;;;;;;;6.40;1.90;;;;;;;-2.33;52.58;98545.83;109565;1252;66413;-68
2024/01/16 10:20:35;;;;;;;8.90;2.50;;;;;;;-2.50;52.75;98550.52;109326;1251;73791;-67
2024/01/16 10:23:28;;;;;;;7.50;2.30;;;;;;;-2.56;54.05;98554.62;109334;1251;57818;-65
2024/01/16 10:26:17;;;;;;;8.30;2.50;;;;;;;-2.60;54.55;98556.52;109389;1251;59029;-66
2024/01/16 10:29:06;;;;;;;7.50;2.60;;;;;;;-2.69;54.77;98557.99;108795;1251;1003261;-66
2024/01/16 10:31:53;;;;;;;7.10;2.40;;;;;;;-2.67;55.02;98567.61;109597;1251;69448;-63
2024/01/16 10:34:42;;;;;;;7.20;2.40;;;;;;;-2.60;55.15;98562.27;108593;1251;1003047;-64
2024/01/16 10:37:46;;;;;;;6.80;2.00;;;;;;;-2.60;55.31;98567.84;109441;1251;58946;-64
2024/01/16 10:40:34;;;;;;;7.30;2.00;;;;;;;-2.53;56.15;98575.98;109526;1251;60279;-64
2024/01/16 10:43:22;;;;;;;7.10;1.90;;;;;;;-2.44;55.20;98573.98;109551;1252;71427;-65
2024/01/16 10:46:15;;;;;;;6.30;1.80;;;;;;;-2.26;55.81;98570.89;109535;1251;67583;-66
2024/01/16 10:49:04;;;;;;;6.00;1.50;;;;;;;-2.04;54.30;98574.30;109562;1251;72667;-65
2024/01/16 10:51:52;;;;;;;6.70;1.90;;;;;;;-1.94;53.09;98581.79;109582;1250;57774;-64
2024/01/16 10:54:44;;;;;;;5.40;1.70;;;;;;;-2.02;52.39;98585.88;108757;1251;1003107;-63
2024/01/16 10:57:32;;;;;;;5.20;1.50;;;;;;;0.31;48.57;98585.55;109531;1250;73978;-64
2024/01/16 11:00:21;;;;;;;6.00;1.80;;;;;;;1.32;43.90;98578.77;109544;1251;67853;-63
2024/01/16 11:03:40;;;;;;;5.90;2.00;;;;;;;1.22;44.37;98580.33;109461;1252;72685;-62
2024/01/16 11:06:29;;;;;;;6.00;2.20;;;;;;;2.04;43.38;98584.51;109515;1252;57404;-68
2024/01/16 11:09:17;;;;;;;5.90;2.00;;;;;;;3.01;41.72;98587.76;108732;1252;1002260;-64
2024/01/16 11:12:06;;;;;;;6.30;2.00;;;;;;;4.09;40.25;98589.77;109511;1252;70495;-65
2024/01/16 11:14:58;;;;;;;6.20;1.90;;;;;;;4.02;39.00;98589.31;109575;1252;68945;-64
2024/01/16 11:17:47;;;;;;;6.30;1.90;;;;;;;5.28;36.95;98593.19;109524;1253;72721;-65
2024/01/16 11:20:37;;;;;;;8.40;2.20;;;;;;;5.57;35.23;98593.52;109457;1252;57336;-66
2024/01/16 11:23:46;;;;;;;6.30;2.00;;;;;;;4.41;36.39;98595.14;109581;1251;60032;-64
2024/01/16 11:26:40;;;;;;;7.40;2.20;;;;;;;4.62;35.75;98600.47;109511;1253;71517;-66
2024/01/16 11:29:27;;;;;;;7.20;2.50;;;;;;;5.39;35.36;98601.54;109490;1252;68155;-66
2024/01/16 11:32:44;;;;;;;6.00;1.70;;;;;;;6.03;32.94;98605.52;109433;1252;72181;-65
2024/01/16 11:35:38;;;;;;;7.20;2.10;;;;;;;6.69;32.98;98603.58;109320;1252;57358;-65
2024/01/16 11:38:26;;;;;;;6.50;2.20;;;;;;;6.69;31.71;98607.70;109434;1252;58866;-67
2024/01/16 11:41:53;;;;;;;6.60;1.90;;;;;;;7.22;32.23;98615.23;109432;1252;70783;-67
2024/01/16 11:44:55;;;;;;;6.50;2.10;;;;;;;7.62;31.52;98620.14;109465;1252;65935;-64
2024/01/16 11:47:43;;;;;;;8.30;1.80;;;;;;;7.64;31.14;98620.51;109296;1252;72316;-65
2024/01/16 11:50:32;;;;;;;6.20;2.00;;;;;;;7.64;31.30;98621.20;109429;1253;57715;-64
2024/01/16 11:53:46;;;;;;;6.40;2.10;;;;;;;7.47;31.58;98622.45;109552;1252;60077;-66
2024/01/16 11:57:14;;;;;;;6.20;1.80;;;;;;;7.42;31.95;98621.71;109513;1252;73298;-64
2024/01/16 12:00:12;;;;;;;6.50;2.30;;;;;;;7.27;32.21;98624.27;109393;1252;66475;-64
2024/01/16 12:03:04;;;;;;;5.70;1.80;;;;;;;6.69;31.27;98630.38;109529;1252;72391;-64
2024/01/16 12:05:58;;;;;;;8.60;3.60;;;;;;;5.87;32.40;98630.95;109527;1251;58308;-65
2024/01/16 12:08:46;;;;;;;12.20;4.00;;;;;;;5.36;33.29;98634.64;109550;1251;60353;-64
2024/01/16 12:11:34;;;;;;;9.20;3.00;;;;;;;4.99;33.28;98635.05;109586;1252;71986;-65
2024/01/16 12:14:30;;;;;;;9.10;3.10;;;;;;;4.73;34.46;98638.95;109578;1252;67833;-65
2024/01/16 12:17:20;;;;;;;8.80;2.60;;;;;;;4.73;34.24;98636.49;109301;1253;72824;-64
2024/01/16 12:20:19;;;;;;;9.60;3.20;;;;;;;4.75;34.56;98640.02;109514;1252;57314;-65
2024/01/16 12:23:09;;;;;;;7.50;2.50;;;;;;;4.69;34.48;98645.75;109571;1252;60381;-64
2024/01/16 12:26:02;;;;;;;7.00;2.20;;;;;;;3.90;34.83;98655.27;109765;1252;71682;-64
2024/01/16 12:28:54;;;;;;;6.30;2.00;;;;;;;3.91;35.78;98659.07;109592;1252;66734;-64
2024/01/16 12:31:46;;;;;;;6.80;2.40;;;;;;;4.09;36.56;98664.40;109705;1252;73079;-65
2024/01/16 12:34:35;;;;;;;11.50;3.30;;;;;;;4.12;36.05;98664.05;109185;1255;58820;-63
2024/01/16 12:37:24;;;;;;;7.00;2.50;;;;;;;4.04;35.99;98668.48;109074;1255;60398;-63
2024/01/16 12:40:14;;;;;;;6.90;2.30;;;;;;;3.99;35.30;98667.61;109101;1255;71785;-65
2024/01/16 12:43:07;;;;;;;6.00;2.00;;;;;;;3.56;34.38;98676.29;109184;1256;66870;-64
2024/01/16 12:45:56;;;;;;;7.80;2.00;;;;;;;3.29;35.70;98678.35;109142;1256;72438;-65
2024/01/16 12:48:47;;;;;;;5.90;2.00;;;;;;;3.16;36.07;98680.30;109073;1256;58428;-64
2024/01/16 12:51:50;;;;;;;5.50;1.70;;;;;;;3.00;36.16;98684.20;109142;1256;60001;-65
2024/01/16 12:54:38;;;;;;;5.30;1.40;;;;;;;2.60;35.79;98694.19;109193;1256;73078;-67
2024/01/16 12:57:26;;;;;;;6.00;1.80;;;;;;;1.68;36.83;98697.71;109173;1255;67691;-64
2024/01/16 13:00:25;;;;;;;6.30;1.80;;;;;;;0.87;38.42;98702.95;109159;1259;71664;-65
2024/01/16 13:03:21;;;;;;;7.10;2.00;;;;;;;0.12;39.89;98709.90;108502;1255;1003274;-63
2024/01/16 13:06:08;;;;;;;5.30;1.50;;;;;;;-0.60;40.91;98712.06;108535;1252;1002415;-65
2024/01/16 13:09:10;;;;;;;5.10;1.60;;;;;;;-1.17;42.52;98711.72;109574;1252;72929;-64